sensor_id;sensor_type;location;lat;lon;timestamp;P1;durP1;ratioP1;P2;durP2;ratioP2
58928;SDS011;44713;53.378;10.022;2022-07-23T00:01:26;2.38;;;0.80;;
58928;SDS011;44713;53.378;10.022;2022-07-23T00:03:52;3.72;;;1.00;;
58928;SDS011;44713;53.378;10.022;2022-07-23T00:06:19;1.17;;;0.60;;
58928;SDS011;44713;53.378;10.022;2022-07-23T00:08:45;1.67;;;0.70;;
58928;SDS011;44713;53.378;10.022;2022-07-23T00:11:10;2.83;;;0.90;;
58928;SDS011;44713;53.378;10.022;2022-07-23T00:13:36;3.15;;;0.70;;
58928;SDS011;44713;53.378;10.022;2022-07-23T00:16:01;2.25;;;0.70;;
58928;SDS011;44713;53.378;10.022;2022-07-23T00:18:27;4.55;;;0.95;;
58928;SDS011;44713;53.378;10.022;2022-07-23T00:20:52;3.85;;;1.10;;
58928;SDS011;44713;53.378;10.022;2022-07-23T00:23:18;4.90;;;1.00;;
58928;SDS011;44713;53.378;10.022;2022-07-23T00:25:43;2.53;;;1.02;;
58928;SDS011;44713;53.378;10.022;2022-07-23T00:28:10;2.15;;;0.95;;
58928;SDS011;44713;53.378;10.022;2022-07-23T00:30:36;3.20;;;1.15;;
58928;SDS011;44713;53.378;10.022;2022-07-23T00:33:03;2.25;;;1.13;;
58928;SDS011;44713;53.378;10.022;2022-07-23T00:35:31;2.63;;;0.82;;
58928;SDS011;44713;53.378;10.022;2022-07-23T00:37:58;5.80;;;1.38;;
58928;SDS011;44713;53.378;10.022;2022-07-23T00:40:25;3.47;;;1.05;;
58928;SDS011;44713;53.378;10.022;2022-07-23T00:42:50;2.53;;;0.90;;
58928;SDS011;44713;53.378;10.022;2022-07-23T00:45:16;5.70;;;1.10;;
58928;SDS011;44713;53.378;10.022;2022-07-23T00:47:41;3.92;;;0.90;;
58928;SDS011;44713;53.378;10.022;2022-07-23T00:50:07;2.45;;;0.93;;
58928;SDS011;44713;53.378;10.022;2022-07-23T00:52:34;2.78;;;0.95;;
58928;SDS011;44713;53.378;10.022;2022-07-23T00:55:00;5.55;;;0.88;;
58928;SDS011;44713;53.378;10.022;2022-07-23T00:57:26;5.68;;;1.30;;
58928;SDS011;44713;53.378;10.022;2022-07-23T00:59:52;2.40;;;0.90;;
58928;SDS011;44713;53.378;10.022;2022-07-23T01:02:18;5.30;;;1.40;;
58928;SDS011;44713;53.378;10.022;2022-07-23T01:04:43;2.80;;;1.05;;
58928;SDS011;44713;53.378;10.022;2022-07-23T01:07:08;6.85;;;1.27;;
58928;SDS011;44713;53.378;10.022;2022-07-23T01:09:34;2.00;;;0.90;;
58928;SDS011;44713;53.378;10.022;2022-07-23T01:12:00;3.50;;;1.10;;
58928;SDS011;44713;53.378;10.022;2022-07-23T01:14:25;1.60;;;0.90;;
58928;SDS011;44713;53.378;10.022;2022-07-23T01:16:51;7.32;;;1.13;;
58928;SDS011;44713;53.378;10.022;2022-07-23T01:19:17;3.35;;;0.85;;
58928;SDS011;44713;53.378;10.022;2022-07-23T01:21:43;2.95;;;0.90;;
58928;SDS011;44713;53.378;10.022;2022-07-23T01:24:11;3.38;;;0.95;;
58928;SDS011;44713;53.378;10.022;2022-07-23T01:26:44;5.57;;;1.30;;
58928;SDS011;44713;53.378;10.022;2022-07-23T01:29:11;5.18;;;1.00;;
58928;SDS011;44713;53.378;10.022;2022-07-23T01:31:39;6.07;;;1.20;;
58928;SDS011;44713;53.378;10.022;2022-07-23T01:34:05;3.05;;;0.85;;
58928;SDS011;44713;53.378;10.022;2022-07-23T01:36:33;3.53;;;1.15;;
58928;SDS011;44713;53.378;10.022;2022-07-23T01:38:59;4.45;;;0.90;;
58928;SDS011;44713;53.378;10.022;2022-07-23T01:41:25;3.05;;;1.00;;
58928;SDS011;44713;53.378;10.022;2022-07-23T01:43:50;3.75;;;0.90;;
58928;SDS011;44713;53.378;10.022;2022-07-23T01:46:16;1.73;;;0.82;;
58928;SDS011;44713;53.378;10.022;2022-07-23T01:48:45;2.78;;;0.90;;
58928;SDS011;44713;53.378;10.022;2022-07-23T01:51:33;4.00;;;1.08;;
58928;SDS011;44713;53.378;10.022;2022-07-23T01:54:04;2.25;;;0.98;;
58928;SDS011;44713;53.378;10.022;2022-07-23T01:56:29;3.90;;;1.20;;
58928;SDS011;44713;53.378;10.022;2022-07-23T01:58:55;4.20;;;1.20;;
58928;SDS011;44713;53.378;10.022;2022-07-23T02:01:21;2.80;;;0.90;;
58928;SDS011;44713;53.378;10.022;2022-07-23T02:03:47;1.67;;;0.90;;
58928;SDS011;44713;53.378;10.022;2022-07-23T02:06:12;6.25;;;1.08;;
58928;SDS011;44713;53.378;10.022;2022-07-23T02:08:37;3.90;;;1.35;;
58928;SDS011;44713;53.378;10.022;2022-07-23T02:11:03;2.60;;;1.13;;
58928;SDS011;44713;53.378;10.022;2022-07-23T02:13:28;5.10;;;1.08;;
58928;SDS011;44713;53.378;10.022;2022-07-23T02:15:54;4.32;;;1.10;;
58928;SDS011;44713;53.378;10.022;2022-07-23T02:18:20;2.22;;;1.10;;
58928;SDS011;44713;53.378;10.022;2022-07-23T02:20:45;3.53;;;1.55;;
58928;SDS011;44713;53.378;10.022;2022-07-23T02:23:10;2.13;;;1.30;;
58928;SDS011;44713;53.378;10.022;2022-07-23T02:25:37;2.75;;;0.95;;
58928;SDS011;44713;53.378;10.022;2022-07-23T02:28:02;2.47;;;1.00;;
58928;SDS011;44713;53.378;10.022;2022-07-23T02:30:28;2.22;;;1.20;;
58928;SDS011;44713;53.378;10.022;2022-07-23T02:32:53;2.08;;;0.90;;
58928;SDS011;44713;53.378;10.022;2022-07-23T02:35:19;4.35;;;1.45;;
58928;SDS011;44713;53.378;10.022;2022-07-23T02:37:44;2.15;;;0.98;;
58928;SDS011;44713;53.378;10.022;2022-07-23T02:40:10;2.60;;;0.90;;
58928;SDS011;44713;53.378;10.022;2022-07-23T02:42:38;3.55;;;1.63;;
58928;SDS011;44713;53.378;10.022;2022-07-23T02:45:04;4.32;;;1.30;;
58928;SDS011;44713;53.378;10.022;2022-07-23T02:47:29;5.97;;;1.35;;
58928;SDS011;44713;53.378;10.022;2022-07-23T02:49:57;3.50;;;1.20;;
58928;SDS011;44713;53.378;10.022;2022-07-23T02:52:23;3.13;;;1.42;;
58928;SDS011;44713;53.378;10.022;2022-07-23T02:54:48;3.33;;;1.40;;
58928;SDS011;44713;53.378;10.022;2022-07-23T02:57:15;2.97;;;1.25;;
58928;SDS011;44713;53.378;10.022;2022-07-23T02:59:41;4.35;;;1.50;;
58928;SDS011;44713;53.378;10.022;2022-07-23T03:02:06;3.22;;;1.08;;
58928;SDS011;44713;53.378;10.022;2022-07-23T03:04:32;4.35;;;1.40;;
58928;SDS011;44713;53.378;10.022;2022-07-23T03:06:57;2.40;;;1.33;;
58928;SDS011;44713;53.378;10.022;2022-07-23T03:09:24;4.07;;;1.15;;
58928;SDS011;44713;53.378;10.022;2022-07-23T03:11:51;7.70;;;1.90;;
58928;SDS011;44713;53.378;10.022;2022-07-23T03:14:18;4.32;;;1.75;;
58928;SDS011;44713;53.378;10.022;2022-07-23T03:16:43;2.97;;;1.52;;
58928;SDS011;44713;53.378;10.022;2022-07-23T03:19:09;5.35;;;1.67;;
58928;SDS011;44713;53.378;10.022;2022-07-23T03:21:34;3.95;;;1.58;;
58928;SDS011;44713;53.378;10.022;2022-07-23T03:24:04;4.55;;;1.63;;
58928;SDS011;44713;53.378;10.022;2022-07-23T03:26:29;2.97;;;1.60;;
58928;SDS011;44713;53.378;10.022;2022-07-23T03:28:55;3.38;;;1.92;;
58928;SDS011;44713;53.378;10.022;2022-07-23T03:31:20;3.65;;;1.67;;
58928;SDS011;44713;53.378;10.022;2022-07-23T03:33:45;7.55;;;2.08;;
58928;SDS011;44713;53.378;10.022;2022-07-23T03:36:11;3.53;;;1.63;;
58928;SDS011;44713;53.378;10.022;2022-07-23T03:38:40;2.50;;;1.35;;
58928;SDS011;44713;53.378;10.022;2022-07-23T03:41:05;3.78;;;1.75;;
58928;SDS011;44713;53.378;10.022;2022-07-23T03:43:31;1.92;;;1.42;;
58928;SDS011;44713;53.378;10.022;2022-07-23T03:45:56;5.60;;;1.67;;
58928;SDS011;44713;53.378;10.022;2022-07-23T03:48:22;4.95;;;1.50;;
58928;SDS011;44713;53.378;10.022;2022-07-23T03:50:47;2.72;;;1.45;;
58928;SDS011;44713;53.378;10.022;2022-07-23T03:53:12;2.45;;;1.20;;
58928;SDS011;44713;53.378;10.022;2022-07-23T03:55:38;3.17;;;1.52;;
58928;SDS011;44713;53.378;10.022;2022-07-23T03:58:03;2.75;;;1.50;;
58928;SDS011;44713;53.378;10.022;2022-07-23T04:00:29;5.75;;;1.50;;
58928;SDS011;44713;53.378;10.022;2022-07-23T04:02:54;2.20;;;1.52;;
58928;SDS011;44713;53.378;10.022;2022-07-23T04:05:20;3.45;;;1.45;;
58928;SDS011;44713;53.378;10.022;2022-07-23T04:07:50;3.78;;;1.70;;
58928;SDS011;44713;53.378;10.022;2022-07-23T04:10:16;4.32;;;1.52;;
58928;SDS011;44713;53.378;10.022;2022-07-23T04:12:42;6.65;;;1.92;;
58928;SDS011;44713;53.378;10.022;2022-07-23T04:15:08;3.67;;;1.60;;
58928;SDS011;44713;53.378;10.022;2022-07-23T04:17:34;3.22;;;1.77;;
58928;SDS011;44713;53.378;10.022;2022-07-23T04:20:00;3.63;;;2.00;;
58928;SDS011;44713;53.378;10.022;2022-07-23T04:22:32;3.83;;;1.73;;
58928;SDS011;44713;53.378;10.022;2022-07-23T04:24:58;3.63;;;2.20;;
58928;SDS011;44713;53.378;10.022;2022-07-23T04:27:23;4.47;;;1.83;;
58928;SDS011;44713;53.378;10.022;2022-07-23T04:29:49;3.65;;;1.80;;
58928;SDS011;44713;53.378;10.022;2022-07-23T04:32:14;2.15;;;1.42;;
58928;SDS011;44713;53.378;10.022;2022-07-23T04:34:40;4.70;;;1.95;;
58928;SDS011;44713;53.378;10.022;2022-07-23T04:37:06;2.35;;;1.95;;
58928;SDS011;44713;53.378;10.022;2022-07-23T04:39:31;5.30;;;1.80;;
58928;SDS011;44713;53.378;10.022;2022-07-23T04:41:57;3.55;;;1.60;;
58928;SDS011;44713;53.378;10.022;2022-07-23T04:44:23;3.03;;;1.75;;
58928;SDS011;44713;53.378;10.022;2022-07-23T04:46:48;4.93;;;2.22;;
58928;SDS011;44713;53.378;10.022;2022-07-23T04:49:14;3.67;;;2.15;;
58928;SDS011;44713;53.378;10.022;2022-07-23T04:51:39;3.65;;;2.47;;
58928;SDS011;44713;53.378;10.022;2022-07-23T04:54:05;4.45;;;2.10;;
58928;SDS011;44713;53.378;10.022;2022-07-23T04:56:30;8.80;;;3.10;;
58928;SDS011;44713;53.378;10.022;2022-07-23T04:58:55;3.67;;;2.53;;
58928;SDS011;44713;53.378;10.022;2022-07-23T05:01:21;3.90;;;1.95;;
58928;SDS011;44713;53.378;10.022;2022-07-23T05:03:46;6.55;;;2.50;;
58928;SDS011;44713;53.378;10.022;2022-07-23T05:06:14;3.90;;;2.55;;
58928;SDS011;44713;53.378;10.022;2022-07-23T05:08:39;4.65;;;2.70;;
58928;SDS011;44713;53.378;10.022;2022-07-23T05:11:05;5.10;;;2.85;;
58928;SDS011;44713;53.378;10.022;2022-07-23T05:13:30;5.22;;;3.25;;
58928;SDS011;44713;53.378;10.022;2022-07-23T05:15:56;5.40;;;2.88;;
58928;SDS011;44713;53.378;10.022;2022-07-23T05:18:22;5.05;;;2.72;;
58928;SDS011;44713;53.378;10.022;2022-07-23T05:20:48;5.75;;;2.85;;
58928;SDS011;44713;53.378;10.022;2022-07-23T05:23:17;5.88;;;3.22;;
58928;SDS011;44713;53.378;10.022;2022-07-23T05:25:42;6.57;;;2.65;;
58928;SDS011;44713;53.378;10.022;2022-07-23T05:28:09;6.65;;;3.00;;
58928;SDS011;44713;53.378;10.022;2022-07-23T05:30:34;6.72;;;3.28;;
58928;SDS011;44713;53.378;10.022;2022-07-23T05:33:03;4.10;;;2.78;;
58928;SDS011;44713;53.378;10.022;2022-07-23T05:35:29;4.47;;;2.97;;
58928;SDS011;44713;53.378;10.022;2022-07-23T05:38:08;5.57;;;3.00;;
58928;SDS011;44713;53.378;10.022;2022-07-23T05:40:34;5.70;;;3.00;;
58928;SDS011;44713;53.378;10.022;2022-07-23T05:43:00;2.90;;;2.53;;
58928;SDS011;44713;53.378;10.022;2022-07-23T05:45:26;5.30;;;2.40;;
58928;SDS011;44713;53.378;10.022;2022-07-23T05:47:51;5.82;;;2.30;;
58928;SDS011;44713;53.378;10.022;2022-07-23T05:50:25;6.60;;;3.45;;
58928;SDS011;44713;53.378;10.022;2022-07-23T05:52:57;8.63;;;3.45;;
58928;SDS011;44713;53.378;10.022;2022-07-23T05:55:42;8.82;;;3.40;;
58928;SDS011;44713;53.378;10.022;2022-07-23T05:58:08;6.22;;;2.67;;
58928;SDS011;44713;53.378;10.022;2022-07-23T06:00:34;6.35;;;3.47;;
58928;SDS011;44713;53.378;10.022;2022-07-23T06:02:59;8.95;;;4.10;;
58928;SDS011;44713;53.378;10.022;2022-07-23T06:05:27;4.15;;;2.80;;
58928;SDS011;44713;53.378;10.022;2022-07-23T06:07:55;6.10;;;3.20;;
58928;SDS011;44713;53.378;10.022;2022-07-23T06:10:22;4.05;;;3.15;;
58928;SDS011;44713;53.378;10.022;2022-07-23T06:12:47;7.68;;;3.60;;
58928;SDS011;44713;53.378;10.022;2022-07-23T06:15:13;5.55;;;3.17;;
58928;SDS011;44713;53.378;10.022;2022-07-23T06:17:39;8.80;;;3.40;;
58928;SDS011;44713;53.378;10.022;2022-07-23T06:20:05;11.02;;;3.70;;
58928;SDS011;44713;53.378;10.022;2022-07-23T06:22:31;8.15;;;4.20;;
58928;SDS011;44713;53.378;10.022;2022-07-23T06:24:57;5.53;;;3.28;;
58928;SDS011;44713;53.378;10.022;2022-07-23T06:27:22;7.18;;;3.15;;
58928;SDS011;44713;53.378;10.022;2022-07-23T06:29:48;3.95;;;3.10;;
58928;SDS011;44713;53.378;10.022;2022-07-23T06:32:15;6.03;;;3.20;;
58928;SDS011;44713;53.378;10.022;2022-07-23T06:34:42;6.70;;;3.42;;
58928;SDS011;44713;53.378;10.022;2022-07-23T06:37:07;7.70;;;3.40;;
58928;SDS011;44713;53.378;10.022;2022-07-23T06:39:32;7.78;;;3.20;;
58928;SDS011;44713;53.378;10.022;2022-07-23T06:41:58;4.38;;;2.55;;
58928;SDS011;44713;53.378;10.022;2022-07-23T06:44:35;8.23;;;3.13;;
58928;SDS011;44713;53.378;10.022;2022-07-23T06:47:00;5.45;;;2.80;;
58928;SDS011;44713;53.378;10.022;2022-07-23T06:49:25;5.97;;;2.78;;
58928;SDS011;44713;53.378;10.022;2022-07-23T06:51:51;9.07;;;2.47;;
58928;SDS011;44713;53.378;10.022;2022-07-23T06:54:16;3.55;;;2.28;;
58928;SDS011;44713;53.378;10.022;2022-07-23T06:56:42;3.92;;;1.85;;
58928;SDS011;44713;53.378;10.022;2022-07-23T06:59:09;4.93;;;2.22;;
58928;SDS011;44713;53.378;10.022;2022-07-23T07:01:35;2.65;;;1.90;;
58928;SDS011;44713;53.378;10.022;2022-07-23T07:04:00;5.78;;;1.92;;
58928;SDS011;44713;53.378;10.022;2022-07-23T07:06:26;5.97;;;1.80;;
58928;SDS011;44713;53.378;10.022;2022-07-23T07:08:51;3.42;;;1.98;;
58928;SDS011;44713;53.378;10.022;2022-07-23T07:11:16;3.55;;;1.80;;
58928;SDS011;44713;53.378;10.022;2022-07-23T07:13:42;6.15;;;2.42;;
58928;SDS011;44713;53.378;10.022;2022-07-23T07:16:07;4.78;;;1.48;;
58928;SDS011;44713;53.378;10.022;2022-07-23T07:18:33;4.03;;;1.40;;
58928;SDS011;44713;53.378;10.022;2022-07-23T07:20:58;4.05;;;1.70;;
58928;SDS011;44713;53.378;10.022;2022-07-23T07:23:23;3.95;;;1.45;;
58928;SDS011;44713;53.378;10.022;2022-07-23T07:25:49;4.45;;;1.40;;
58928;SDS011;44713;53.378;10.022;2022-07-23T07:28:14;8.02;;;1.70;;
58928;SDS011;44713;53.378;10.022;2022-07-23T07:30:40;5.45;;;1.73;;
58928;SDS011;44713;53.378;10.022;2022-07-23T07:33:05;3.55;;;1.50;;
58928;SDS011;44713;53.378;10.022;2022-07-23T07:35:31;5.50;;;1.60;;
58928;SDS011;44713;53.378;10.022;2022-07-23T07:37:57;7.07;;;2.10;;
58928;SDS011;44713;53.378;10.022;2022-07-23T07:40:24;3.55;;;1.60;;
58928;SDS011;44713;53.378;10.022;2022-07-23T07:42:50;3.13;;;1.23;;
58928;SDS011;44713;53.378;10.022;2022-07-23T07:45:19;5.68;;;1.38;;
58928;SDS011;44713;53.378;10.022;2022-07-23T07:47:46;3.33;;;1.10;;
58928;SDS011;44713;53.378;10.022;2022-07-23T07:50:11;2.75;;;1.02;;
58928;SDS011;44713;53.378;10.022;2022-07-23T07:52:37;2.28;;;0.90;;
58928;SDS011;44713;53.378;10.022;2022-07-23T07:55:04;2.28;;;1.00;;
58928;SDS011;44713;53.378;10.022;2022-07-23T07:57:30;1.60;;;0.75;;
58928;SDS011;44713;53.378;10.022;2022-07-23T07:59:55;2.97;;;0.93;;
58928;SDS011;44713;53.378;10.022;2022-07-23T08:02:20;3.65;;;1.20;;
58928;SDS011;44713;53.378;10.022;2022-07-23T08:04:46;2.00;;;0.77;;
58928;SDS011;44713;53.378;10.022;2022-07-23T08:07:11;2.08;;;1.00;;
58928;SDS011;44713;53.378;10.022;2022-07-23T08:09:36;3.50;;;1.08;;
58928;SDS011;44713;53.378;10.022;2022-07-23T08:12:02;3.97;;;0.90;;
58928;SDS011;44713;53.378;10.022;2022-07-23T08:14:27;2.35;;;0.70;;
58928;SDS011;44713;53.378;10.022;2022-07-23T08:16:53;2.78;;;0.98;;
58928;SDS011;44713;53.378;10.022;2022-07-23T08:19:18;1.23;;;0.60;;
58928;SDS011;44713;53.378;10.022;2022-07-23T08:21:43;2.90;;;0.77;;
58928;SDS011;44713;53.378;10.022;2022-07-23T08:24:09;1.52;;;0.55;;
58928;SDS011;44713;53.378;10.022;2022-07-23T08:26:34;2.33;;;0.70;;
58928;SDS011;44713;53.378;10.022;2022-07-23T08:28:59;5.88;;;0.77;;
58928;SDS011;44713;53.378;10.022;2022-07-23T08:31:25;2.03;;;0.63;;
58928;SDS011;44713;53.378;10.022;2022-07-23T08:33:50;1.33;;;0.60;;
58928;SDS011;44713;53.378;10.022;2022-07-23T08:36:17;0.88;;;0.60;;
58928;SDS011;44713;53.378;10.022;2022-07-23T08:38:42;2.58;;;1.00;;
58928;SDS011;44713;53.378;10.022;2022-07-23T08:41:08;1.92;;;0.60;;
58928;SDS011;44713;53.378;10.022;2022-07-23T08:43:34;2.90;;;0.65;;
58928;SDS011;44713;53.378;10.022;2022-07-23T08:46:01;2.10;;;0.47;;
58928;SDS011;44713;53.378;10.022;2022-07-23T08:48:29;1.33;;;0.60;;
58928;SDS011;44713;53.378;10.022;2022-07-23T08:50:57;1.70;;;0.63;;
58928;SDS011;44713;53.378;10.022;2022-07-23T08:53:24;2.40;;;0.75;;
58928;SDS011;44713;53.378;10.022;2022-07-23T08:55:52;3.97;;;0.55;;
58928;SDS011;44713;53.378;10.022;2022-07-23T08:58:19;1.17;;;0.60;;
58928;SDS011;44713;53.378;10.022;2022-07-23T09:00:45;2.17;;;0.40;;
58928;SDS011;44713;53.378;10.022;2022-07-23T09:05:46;0.85;;;0.47;;
58928;SDS011;44713;53.378;10.022;2022-07-23T09:08:14;1.10;;;0.70;;
58928;SDS011;44713;53.378;10.022;2022-07-23T09:10:58;2.92;;;0.52;;
58928;SDS011;44713;53.378;10.022;2022-07-23T09:16:01;1.98;;;0.30;;
58928;SDS011;44713;53.378;10.022;2022-07-23T09:18:36;4.22;;;1.63;;
58928;SDS011;44713;53.378;10.022;2022-07-23T09:21:07;1.75;;;0.50;;
58928;SDS011;44713;53.378;10.022;2022-07-23T09:23:38;1.92;;;0.40;;
58928;SDS011;44713;53.378;10.022;2022-07-23T09:26:17;0.47;;;0.25;;
58928;SDS011;44713;53.378;10.022;2022-07-23T09:28:52;2.33;;;0.50;;
58928;SDS011;44713;53.378;10.022;2022-07-23T09:31:25;1.33;;;0.30;;
58928;SDS011;44713;53.378;10.022;2022-07-23T09:34:06;2.00;;;0.38;;
58928;SDS011;44713;53.378;10.022;2022-07-23T09:36:33;0.80;;;0.40;;
58928;SDS011;44713;53.378;10.022;2022-07-23T09:38:58;1.42;;;0.45;;
58928;SDS011;44713;53.378;10.022;2022-07-23T09:41:24;0.88;;;0.35;;
58928;SDS011;44713;53.378;10.022;2022-07-23T09:43:54;1.50;;;0.40;;
58928;SDS011;44713;53.378;10.022;2022-07-23T09:46:24;1.00;;;0.40;;
58928;SDS011;44713;53.378;10.022;2022-07-23T09:48:54;0.57;;;0.30;;
58928;SDS011;44713;53.378;10.022;2022-07-23T09:51:21;0.85;;;0.30;;
58928;SDS011;44713;53.378;10.022;2022-07-23T09:54:06;1.92;;;0.40;;
58928;SDS011;44713;53.378;10.022;2022-07-23T09:56:47;0.80;;;0.30;;
58928;SDS011;44713;53.378;10.022;2022-07-23T09:59:14;0.50;;;0.30;;
58928;SDS011;44713;53.378;10.022;2022-07-23T10:01:43;0.65;;;0.40;;
58928;SDS011;44713;53.378;10.022;2022-07-23T10:04:09;1.95;;;0.40;;
58928;SDS011;44713;53.378;10.022;2022-07-23T10:06:58;0.82;;;0.40;;
58928;SDS011;44713;53.378;10.022;2022-07-23T10:09:43;1.23;;;0.40;;
58928;SDS011;44713;53.378;10.022;2022-07-23T10:12:35;0.60;;;0.35;;
58928;SDS011;44713;53.378;10.022;2022-07-23T10:15:04;0.73;;;0.35;;
58928;SDS011;44713;53.378;10.022;2022-07-23T10:17:32;2.38;;;0.40;;
58928;SDS011;44713;53.378;10.022;2022-07-23T10:19:58;1.15;;;0.30;;
58928;SDS011;44713;53.378;10.022;2022-07-23T10:22:30;1.13;;;0.30;;
58928;SDS011;44713;53.378;10.022;2022-07-23T10:27:54;2.53;;;0.60;;
58928;SDS011;44713;53.378;10.022;2022-07-23T10:33:20;0.90;;;0.40;;
58928;SDS011;44713;53.378;10.022;2022-07-23T10:36:01;1.55;;;0.40;;
58928;SDS011;44713;53.378;10.022;2022-07-23T10:41:13;0.60;;;0.30;;
58928;SDS011;44713;53.378;10.022;2022-07-23T10:43:39;0.52;;;0.15;;
58928;SDS011;44713;53.378;10.022;2022-07-23T10:46:20;1.77;;;0.35;;
58928;SDS011;44713;53.378;10.022;2022-07-23T10:49:20;1.27;;;0.28;;
58928;SDS011;44713;53.378;10.022;2022-07-23T10:57:49;0.63;;;0.30;;
58928;SDS011;44713;53.378;10.022;2022-07-23T11:00:26;1.10;;;0.38;;
58928;SDS011;44713;53.378;10.022;2022-07-23T11:02:54;3.78;;;0.25;;
58928;SDS011;44713;53.378;10.022;2022-07-23T11:08:11;1.67;;;0.20;;
58928;SDS011;44713;53.378;10.022;2022-07-23T11:10:47;0.95;;;0.20;;
58928;SDS011;44713;53.378;10.022;2022-07-23T11:13:35;0.40;;;0.20;;
58928;SDS011;44713;53.378;10.022;2022-07-23T11:26:40;1.65;;;0.20;;
58928;SDS011;44713;53.378;10.022;2022-07-23T11:32:22;1.55;;;0.30;;
58928;SDS011;44713;53.378;10.022;2022-07-23T11:34:50;1.38;;;0.30;;
58928;SDS011;44713;53.378;10.022;2022-07-23T11:37:38;1.08;;;0.20;;
58928;SDS011;44713;53.378;10.022;2022-07-23T11:40:09;0.68;;;0.20;;
58928;SDS011;44713;53.378;10.022;2022-07-23T11:42:38;0.10;;;0.10;;
58928;SDS011;44713;53.378;10.022;2022-07-23T11:45:05;1.15;;;0.30;;
58928;SDS011;44713;53.378;10.022;2022-07-23T11:47:32;0.75;;;0.20;;
58928;SDS011;44713;53.378;10.022;2022-07-23T11:49:58;0.68;;;0.22;;
58928;SDS011;44713;53.378;10.022;2022-07-23T11:52:25;0.80;;;0.30;;
58928;SDS011;44713;53.378;10.022;2022-07-23T11:54:55;1.77;;;0.20;;
58928;SDS011;44713;53.378;10.022;2022-07-23T11:57:27;1.10;;;0.20;;
58928;SDS011;44713;53.378;10.022;2022-07-23T11:59:57;0.30;;;0.28;;
58928;SDS011;44713;53.378;10.022;2022-07-23T12:02:37;0.20;;;0.20;;
58928;SDS011;44713;53.378;10.022;2022-07-23T12:05:08;2.25;;;0.30;;
58928;SDS011;44713;53.378;10.022;2022-07-23T12:07:41;0.85;;;0.10;;
58928;SDS011;44713;53.378;10.022;2022-07-23T12:10:15;0.88;;;0.25;;
58928;SDS011;44713;53.378;10.022;2022-07-23T12:12:58;0.90;;;0.30;;
58928;SDS011;44713;53.378;10.022;2022-07-23T12:15:26;1.02;;;0.20;;
58928;SDS011;44713;53.378;10.022;2022-07-23T12:17:58;2.20;;;0.20;;
58928;SDS011;44713;53.378;10.022;2022-07-23T12:20:27;2.22;;;0.35;;
58928;SDS011;44713;53.378;10.022;2022-07-23T12:22:56;1.95;;;0.30;;
58928;SDS011;44713;53.378;10.022;2022-07-23T12:25:25;1.70;;;0.28;;
58928;SDS011;44713;53.378;10.022;2022-07-23T12:28:06;1.70;;;0.40;;
58928;SDS011;44713;53.378;10.022;2022-07-23T12:30:39;2.33;;;0.30;;
58928;SDS011;44713;53.378;10.022;2022-07-23T12:33:07;2.53;;;0.20;;
58928;SDS011;44713;53.378;10.022;2022-07-23T12:38:04;1.05;;;0.30;;
58928;SDS011;44713;53.378;10.022;2022-07-23T12:40:32;0.40;;;0.20;;
58928;SDS011;44713;53.378;10.022;2022-07-23T12:43:36;1.98;;;0.40;;
58928;SDS011;44713;53.378;10.022;2022-07-23T12:48:28;2.08;;;0.40;;
58928;SDS011;44713;53.378;10.022;2022-07-23T12:51:08;1.13;;;0.28;;
58928;SDS011;44713;53.378;10.022;2022-07-23T12:53:43;2.67;;;0.57;;
58928;SDS011;44713;53.378;10.022;2022-07-23T12:56:12;1.25;;;0.30;;
58928;SDS011;44713;53.378;10.022;2022-07-23T12:58:47;1.17;;;0.30;;
58928;SDS011;44713;53.378;10.022;2022-07-23T13:06:31;1.73;;;0.30;;
58928;SDS011;44713;53.378;10.022;2022-07-23T13:08:59;2.03;;;0.40;;
58928;SDS011;44713;53.378;10.022;2022-07-23T13:11:25;1.20;;;0.30;;
58928;SDS011;44713;53.378;10.022;2022-07-23T13:13:50;2.50;;;0.40;;
58928;SDS011;44713;53.378;10.022;2022-07-23T13:16:16;0.70;;;0.15;;
58928;SDS011;44713;53.378;10.022;2022-07-23T13:18:41;0.90;;;0.28;;
58928;SDS011;44713;53.378;10.022;2022-07-23T13:21:07;0.68;;;0.40;;
58928;SDS011;44713;53.378;10.022;2022-07-23T13:23:33;1.02;;;0.20;;
58928;SDS011;44713;53.378;10.022;2022-07-23T13:25:59;5.80;;;0.55;;
58928;SDS011;44713;53.378;10.022;2022-07-23T13:28:24;3.40;;;0.50;;
58928;SDS011;44713;53.378;10.022;2022-07-23T13:30:50;2.88;;;0.60;;
58928;SDS011;44713;53.378;10.022;2022-07-23T13:33:17;0.85;;;0.70;;
58928;SDS011;44713;53.378;10.022;2022-07-23T13:35:43;1.30;;;0.43;;
58928;SDS011;44713;53.378;10.022;2022-07-23T13:38:09;1.98;;;0.50;;
58928;SDS011;44713;53.378;10.022;2022-07-23T13:40:38;3.33;;;0.70;;
58928;SDS011;44713;53.378;10.022;2022-07-23T13:43:07;3.28;;;0.40;;
58928;SDS011;44713;53.378;10.022;2022-07-23T13:45:33;0.80;;;0.40;;
58928;SDS011;44713;53.378;10.022;2022-07-23T13:47:59;1.80;;;0.57;;
58928;SDS011;44713;53.378;10.022;2022-07-23T13:50:24;2.75;;;0.40;;
58928;SDS011;44713;53.378;10.022;2022-07-23T13:52:50;2.17;;;0.50;;
58928;SDS011;44713;53.378;10.022;2022-07-23T13:55:15;0.85;;;0.40;;
58928;SDS011;44713;53.378;10.022;2022-07-23T13:57:41;3.53;;;0.40;;
58928;SDS011;44713;53.378;10.022;2022-07-23T14:00:06;2.30;;;0.65;;
58928;SDS011;44713;53.378;10.022;2022-07-23T14:02:35;1.33;;;0.32;;
58928;SDS011;44713;53.378;10.022;2022-07-23T14:05:01;2.53;;;0.40;;
58928;SDS011;44713;53.378;10.022;2022-07-23T14:07:27;0.95;;;0.40;;
58928;SDS011;44713;53.378;10.022;2022-07-23T14:09:53;2.33;;;0.38;;
58928;SDS011;44713;53.378;10.022;2022-07-23T14:12:18;2.72;;;0.50;;
58928;SDS011;44713;53.378;10.022;2022-07-23T14:14:43;1.30;;;0.40;;
58928;SDS011;44713;53.378;10.022;2022-07-23T14:17:09;2.20;;;0.52;;
58928;SDS011;44713;53.378;10.022;2022-07-23T14:19:35;2.83;;;0.50;;
58928;SDS011;44713;53.378;10.022;2022-07-23T14:22:00;1.75;;;0.40;;
58928;SDS011;44713;53.378;10.022;2022-07-23T14:24:26;0.40;;;0.28;;
58928;SDS011;44713;53.378;10.022;2022-07-23T14:26:51;1.73;;;0.35;;
58928;SDS011;44713;53.378;10.022;2022-07-23T14:29:16;1.48;;;0.65;;
58928;SDS011;44713;53.378;10.022;2022-07-23T14:31:42;1.95;;;0.50;;
58928;SDS011;44713;53.378;10.022;2022-07-23T14:34:07;0.52;;;0.30;;
58928;SDS011;44713;53.378;10.022;2022-07-23T14:36:33;1.85;;;0.40;;
58928;SDS011;44713;53.378;10.022;2022-07-23T14:38:58;1.63;;;0.73;;
58928;SDS011;44713;53.378;10.022;2022-07-23T14:41:23;0.98;;;0.47;;
58928;SDS011;44713;53.378;10.022;2022-07-23T14:43:49;0.70;;;0.50;;
58928;SDS011;44713;53.378;10.022;2022-07-23T14:46:14;1.00;;;0.38;;
58928;SDS011;44713;53.378;10.022;2022-07-23T14:48:40;1.50;;;0.30;;
58928;SDS011;44713;53.378;10.022;2022-07-23T14:51:05;1.17;;;0.30;;
58928;SDS011;44713;53.378;10.022;2022-07-23T14:53:31;0.55;;;0.20;;
58928;SDS011;44713;53.378;10.022;2022-07-23T14:55:56;0.93;;;0.30;;
58928;SDS011;44713;53.378;10.022;2022-07-23T14:58:22;1.10;;;0.40;;
58928;SDS011;44713;53.378;10.022;2022-07-23T15:00:48;0.47;;;0.30;;
58928;SDS011;44713;53.378;10.022;2022-07-23T15:03:13;1.40;;;0.43;;
58928;SDS011;44713;53.378;10.022;2022-07-23T15:05:39;0.60;;;0.20;;
58928;SDS011;44713;53.378;10.022;2022-07-23T15:08:04;1.27;;;0.20;;
58928;SDS011;44713;53.378;10.022;2022-07-23T15:10:29;0.30;;;0.30;;
58928;SDS011;44713;53.378;10.022;2022-07-23T15:12:55;1.02;;;0.32;;
58928;SDS011;44713;53.378;10.022;2022-07-23T15:15:20;0.40;;;0.20;;
58928;SDS011;44713;53.378;10.022;2022-07-23T15:17:46;0.60;;;0.30;;
58928;SDS011;44713;53.378;10.022;2022-07-23T15:20:11;4.00;;;0.35;;
58928;SDS011;44713;53.378;10.022;2022-07-23T15:22:36;1.95;;;0.57;;